sensor_id;sensor_type;location;lat;lon;timestamp;temperature;humidity
33508;DHT22;25568;37.410;-122.096;2023-02-04T00:02:00;18.10;80.50
33508;DHT22;25568;37.410;-122.096;2023-02-04T00:04:31;18.10;80.70
33508;DHT22;25568;37.410;-122.096;2023-02-04T00:06:59;18.10;80.60
33508;DHT22;25568;37.410;-122.096;2023-02-04T00:09:32;18.10;80.50
33508;DHT22;25568;37.410;-122.096;2023-02-04T00:12:06;18.10;80.50
33508;DHT22;25568;37.410;-122.096;2023-02-04T00:14:36;18.10;80.50
33508;DHT22;25568;37.410;-122.096;2023-02-04T00:17:05;18.10;80.50
33508;DHT22;25568;37.410;-122.096;2023-02-04T00:19:38;18.10;81.00
33508;DHT22;25568;37.410;-122.096;2023-02-04T00:22:08;18.10;80.50
33508;DHT22;25568;37.410;-122.096;2023-02-04T00:24:37;18.10;80.40
33508;DHT22;25568;37.410;-122.096;2023-02-04T00:27:08;18.10;80.40
33508;DHT22;25568;37.410;-122.096;2023-02-04T00:29:37;18.00;80.40
33508;DHT22;25568;37.410;-122.096;2023-02-04T00:32:06;18.00;80.40
33508;DHT22;25568;37.410;-122.096;2023-02-04T00:34:36;18.00;80.40
33508;DHT22;25568;37.410;-122.096;2023-02-04T00:37:06;18.00;80.40
33508;DHT22;25568;37.410;-122.096;2023-02-04T00:39:35;18.00;80.30
33508;DHT22;25568;37.410;-122.096;2023-02-04T00:42:04;18.00;80.40
33508;DHT22;25568;37.410;-122.096;2023-02-04T00:44:33;18.00;80.40
33508;DHT22;25568;37.410;-122.096;2023-02-04T00:47:02;18.00;80.30
33508;DHT22;25568;37.410;-122.096;2023-02-04T00:49:32;18.00;80.30
33508;DHT22;25568;37.410;-122.096;2023-02-04T00:52:03;18.00;80.30
33508;DHT22;25568;37.410;-122.096;2023-02-04T00:54:32;18.00;80.40
33508;DHT22;25568;37.410;-122.096;2023-02-04T00:57:01;18.00;80.30
33508;DHT22;25568;37.410;-122.096;2023-02-04T00:59:29;18.00;80.30
33508;DHT22;25568;37.410;-122.096;2023-02-04T01:01:58;18.00;80.40
33508;DHT22;25568;37.410;-122.096;2023-02-04T01:04:27;18.00;80.30
33508;DHT22;25568;37.410;-122.096;2023-02-04T01:06:56;18.00;80.30
33508;DHT22;25568;37.410;-122.096;2023-02-04T01:09:27;18.00;80.20
33508;DHT22;25568;37.410;-122.096;2023-02-04T01:11:56;18.00;80.20
33508;DHT22;25568;37.410;-122.096;2023-02-04T01:14:24;18.00;80.20
33508;DHT22;25568;37.410;-122.096;2023-02-04T01:16:53;18.00;80.20
33508;DHT22;25568;37.410;-122.096;2023-02-04T01:19:25;18.00;80.10
33508;DHT22;25568;37.410;-122.096;2023-02-04T01:21:54;17.90;80.10
33508;DHT22;25568;37.410;-122.096;2023-02-04T01:24:23;18.00;80.20
33508;DHT22;25568;37.410;-122.096;2023-02-04T01:26:53;17.90;80.00
33508;DHT22;25568;37.410;-122.096;2023-02-04T01:29:22;17.90;80.10
33508;DHT22;25568;37.410;-122.096;2023-02-04T01:31:51;17.90;80.20
33508;DHT22;25568;37.410;-122.096;2023-02-04T01:34:20;18.00;80.00
33508;DHT22;25568;37.410;-122.096;2023-02-04T01:36:49;18.10;79.80
33508;DHT22;25568;37.410;-122.096;2023-02-04T01:39:20;18.20;79.50
33508;DHT22;25568;37.410;-122.096;2023-02-04T01:41:50;18.30;79.40
33508;DHT22;25568;37.410;-122.096;2023-02-04T01:44:20;18.30;79.10
33508;DHT22;25568;37.410;-122.096;2023-02-04T01:46:49;18.30;79.20
33508;DHT22;25568;37.410;-122.096;2023-02-04T01:49:18;18.30;79.20
33508;DHT22;25568;37.410;-122.096;2023-02-04T01:51:47;18.30;79.20
33508;DHT22;25568;37.410;-122.096;2023-02-04T01:54:17;18.30;79.20
33508;DHT22;25568;37.410;-122.096;2023-02-04T01:56:49;18.30;79.20
33508;DHT22;25568;37.410;-122.096;2023-02-04T01:59:20;18.30;79.30
33508;DHT22;25568;37.410;-122.096;2023-02-04T02:01:52;18.20;79.40
33508;DHT22;25568;37.410;-122.096;2023-02-04T02:04:27;18.20;79.40
33508;DHT22;25568;37.410;-122.096;2023-02-04T02:06:58;18.20;79.40
33508;DHT22;25568;37.410;-122.096;2023-02-04T02:09:40;18.20;79.40
33508;DHT22;25568;37.410;-122.096;2023-02-04T02:12:15;18.20;79.50
33508;DHT22;25568;37.410;-122.096;2023-02-04T02:14:46;18.20;79.70
33508;DHT22;25568;37.410;-122.096;2023-02-04T02:17:14;18.20;79.70
33508;DHT22;25568;37.410;-122.096;2023-02-04T02:19:44;18.20;79.70
33508;DHT22;25568;37.410;-122.096;2023-02-04T02:22:19;18.20;79.70
33508;DHT22;25568;37.410;-122.096;2023-02-04T02:24:51;18.20;79.70
33508;DHT22;25568;37.410;-122.096;2023-02-04T02:27:21;18.20;79.70
33508;DHT22;25568;37.410;-122.096;2023-02-04T02:29:51;18.20;79.70
33508;DHT22;25568;37.410;-122.096;2023-02-04T02:32:20;18.10;79.70
33508;DHT22;25568;37.410;-122.096;2023-02-04T02:34:50;18.10;79.70
33508;DHT22;25568;37.410;-122.096;2023-02-04T02:37:21;18.10;79.70
33508;DHT22;25568;37.410;-122.096;2023-02-04T02:39:51;18.10;79.70
33508;DHT22;25568;37.410;-122.096;2023-02-04T02:42:20;18.10;79.70
33508;DHT22;25568;37.410;-122.096;2023-02-04T02:44:50;18.10;79.80
33508;DHT22;25568;37.410;-122.096;2023-02-04T02:47:20;18.10;79.70
33508;DHT22;25568;37.410;-122.096;2023-02-04T02:49:52;18.10;79.70
33508;DHT22;25568;37.410;-122.096;2023-02-04T02:52:21;18.10;79.70
33508;DHT22;25568;37.410;-122.096;2023-02-04T02:54:52;18.10;79.80
33508;DHT22;25568;37.410;-122.096;2023-02-04T02:57:23;18.10;79.90
33508;DHT22;25568;37.410;-122.096;2023-02-04T02:59:52;18.10;79.90
33508;DHT22;25568;37.410;-122.096;2023-02-04T03:02:23;18.00;79.80
33508;DHT22;25568;37.410;-122.096;2023-02-04T03:04:54;18.00;80.00
33508;DHT22;25568;37.410;-122.096;2023-02-04T03:07:26;18.00;80.40
33508;DHT22;25568;37.410;-122.096;2023-02-04T03:10:00;18.00;80.20
33508;DHT22;25568;37.410;-122.096;2023-02-04T03:12:28;17.90;80.20
33508;DHT22;25568;37.410;-122.096;2023-02-04T03:14:57;18.00;80.30
33508;DHT22;25568;37.410;-122.096;2023-02-04T03:17:26;17.90;80.20
33508;DHT22;25568;37.410;-122.096;2023-02-04T03:19:55;17.90;80.20
33508;DHT22;25568;37.410;-122.096;2023-02-04T03:22:25;17.90;80.20
33508;DHT22;25568;37.410;-122.096;2023-02-04T03:24:53;17.90;80.40
33508;DHT22;25568;37.410;-122.096;2023-02-04T03:27:25;17.90;80.30
33508;DHT22;25568;37.410;-122.096;2023-02-04T03:29:54;17.90;81.10
33508;DHT22;25568;37.410;-122.096;2023-02-04T03:32:23;17.90;80.30
33508;DHT22;25568;37.410;-122.096;2023-02-04T03:34:52;17.90;80.40
33508;DHT22;25568;37.410;-122.096;2023-02-04T03:37:21;17.90;80.40
33508;DHT22;25568;37.410;-122.096;2023-02-04T03:39:49;17.90;80.40
33508;DHT22;25568;37.410;-122.096;2023-02-04T03:42:18;17.90;80.50
33508;DHT22;25568;37.410;-122.096;2023-02-04T03:44:49;17.80;80.50
33508;DHT22;25568;37.410;-122.096;2023-02-04T03:47:18;17.80;80.40
33508;DHT22;25568;37.410;-122.096;2023-02-04T03:49:46;17.80;80.50
33508;DHT22;25568;37.410;-122.096;2023-02-04T03:52:15;17.80;80.50
33508;DHT22;25568;37.410;-122.096;2023-02-04T03:54:45;17.80;80.60
33508;DHT22;25568;37.410;-122.096;2023-02-04T03:57:14;17.80;80.60
33508;DHT22;25568;37.410;-122.096;2023-02-04T03:59:43;17.80;80.60
33508;DHT22;25568;37.410;-122.096;2023-02-04T04:02:14;17.80;80.70
33508;DHT22;25568;37.410;-122.096;2023-02-04T04:04:43;17.80;80.70
33508;DHT22;25568;37.410;-122.096;2023-02-04T04:07:12;17.80;80.70
33508;DHT22;25568;37.410;-122.096;2023-02-04T04:09:41;17.80;80.70
33508;DHT22;25568;37.410;-122.096;2023-02-04T04:12:10;17.80;80.80
33508;DHT22;25568;37.410;-122.096;2023-02-04T04:14:38;17.80;80.40
33508;DHT22;25568;37.410;-122.096;2023-02-04T04:17:08;17.80;80.40
33508;DHT22;25568;37.410;-122.096;2023-02-04T04:19:38;17.80;80.40
33508;DHT22;25568;37.410;-122.096;2023-02-04T04:22:07;17.70;80.30
33508;DHT22;25568;37.410;-122.096;2023-02-04T04:24:36;17.70;80.30
33508;DHT22;25568;37.410;-122.096;2023-02-04T04:27:05;17.70;80.30
33508;DHT22;25568;37.410;-122.096;2023-02-04T04:29:33;17.70;80.20
33508;DHT22;25568;37.410;-122.096;2023-02-04T04:32:02;17.70;80.20
33508;DHT22;25568;37.410;-122.096;2023-02-04T04:34:31;17.70;80.20
33508;DHT22;25568;37.410;-122.096;2023-02-04T04:37:02;17.70;80.30
33508;DHT22;25568;37.410;-122.096;2023-02-04T04:39:31;17.70;80.20
33508;DHT22;25568;37.410;-122.096;2023-02-04T04:41:59;17.70;80.30
33508;DHT22;25568;37.410;-122.096;2023-02-04T04:44:28;17.70;80.20
33508;DHT22;25568;37.410;-122.096;2023-02-04T04:46:57;17.70;80.40
33508;DHT22;25568;37.410;-122.096;2023-02-04T04:49:26;17.70;80.20
33508;DHT22;25568;37.410;-122.096;2023-02-04T04:51:55;17.70;80.20
33508;DHT22;25568;37.410;-122.096;2023-02-04T04:54:25;17.70;80.20
33508;DHT22;25568;37.410;-122.096;2023-02-04T04:56:54;17.70;80.20
33508;DHT22;25568;37.410;-122.096;2023-02-04T04:59:23;17.60;80.00
33508;DHT22;25568;37.410;-122.096;2023-02-04T05:01:52;17.60;80.20
33508;DHT22;25568;37.410;-122.096;2023-02-04T05:04:21;17.60;80.20
33508;DHT22;25568;37.410;-122.096;2023-02-04T05:06:50;17.60;80.20
33508;DHT22;25568;37.410;-122.096;2023-02-04T05:09:19;17.60;80.10
33508;DHT22;25568;37.410;-122.096;2023-02-04T05:11:49;17.60;80.20
33508;DHT22;25568;37.410;-122.096;2023-02-04T05:14:18;17.60;80.00
33508;DHT22;25568;37.410;-122.096;2023-02-04T05:16:47;17.60;80.10
33508;DHT22;25568;37.410;-122.096;2023-02-04T05:19:16;17.60;80.00
33508;DHT22;25568;37.410;-122.096;2023-02-04T05:21:44;17.60;80.10
33508;DHT22;25568;37.410;-122.096;2023-02-04T05:24:13;17.60;80.00
33508;DHT22;25568;37.410;-122.096;2023-02-04T05:26:43;17.60;80.00
33508;DHT22;25568;37.410;-122.096;2023-02-04T05:29:13;17.60;80.00
33508;DHT22;25568;37.410;-122.096;2023-02-04T05:31:42;17.60;79.90
33508;DHT22;25568;37.410;-122.096;2023-02-04T05:34:11;17.60;80.00
33508;DHT22;25568;37.410;-122.096;2023-02-04T05:36:42;17.60;79.90
33508;DHT22;25568;37.410;-122.096;2023-02-04T05:39:11;17.60;80.00
33508;DHT22;25568;37.410;-122.096;2023-02-04T05:41:40;17.60;80.10
33508;DHT22;25568;37.410;-122.096;2023-02-04T05:44:08;17.60;80.20
33508;DHT22;25568;37.410;-122.096;2023-02-04T05:46:39;17.60;80.30
33508;DHT22;25568;37.410;-122.096;2023-02-04T05:49:08;17.60;80.40
33508;DHT22;25568;37.410;-122.096;2023-02-04T05:51:37;17.60;80.40
33508;DHT22;25568;37.410;-122.096;2023-02-04T05:54:06;17.60;80.50
33508;DHT22;25568;37.410;-122.096;2023-02-04T05:56:35;17.60;80.50
33508;DHT22;25568;37.410;-122.096;2023-02-04T05:59:04;17.50;80.40
33508;DHT22;25568;37.410;-122.096;2023-02-04T06:01:32;17.60;80.50
33508;DHT22;25568;37.410;-122.096;2023-02-04T06:04:03;17.60;80.50
33508;DHT22;25568;37.410;-122.096;2023-02-04T06:06:32;17.60;80.50
33508;DHT22;25568;37.410;-122.096;2023-02-04T06:09:01;17.60;80.50
33508;DHT22;25568;37.410;-122.096;2023-02-04T06:11:30;17.60;80.50
33508;DHT22;25568;37.410;-122.096;2023-02-04T06:13:59;17.50;80.40
33508;DHT22;25568;37.410;-122.096;2023-02-04T06:16:28;17.60;80.40
33508;DHT22;25568;37.410;-122.096;2023-02-04T06:18:56;17.70;80.20
33508;DHT22;25568;37.410;-122.096;2023-02-04T06:21:27;17.80;79.90
33508;DHT22;25568;37.410;-122.096;2023-02-04T06:23:56;17.90;79.80
33508;DHT22;25568;37.410;-122.096;2023-02-04T06:26:25;17.90;79.70
33508;DHT22;25568;37.410;-122.096;2023-02-04T06:28:53;18.00;79.70
33508;DHT22;25568;37.410;-122.096;2023-02-04T06:31:22;18.00;79.70
33508;DHT22;25568;37.410;-122.096;2023-02-04T06:33:51;17.90;79.60
33508;DHT22;25568;37.410;-122.096;2023-02-04T06:36:20;18.00;79.90
33508;DHT22;25568;37.410;-122.096;2023-02-04T06:38:51;18.00;79.60
33508;DHT22;25568;37.410;-122.096;2023-02-04T06:41:19;18.00;79.60
33508;DHT22;25568;37.410;-122.096;2023-02-04T06:43:48;18.00;79.70
33508;DHT22;25568;37.410;-122.096;2023-02-04T06:46:17;18.00;79.90
33508;DHT22;25568;37.410;-122.096;2023-02-04T06:48:46;17.90;79.80
33508;DHT22;25568;37.410;-122.096;2023-02-04T06:51:15;18.00;79.90
33508;DHT22;25568;37.410;-122.096;2023-02-04T06:53:43;18.00;79.90
33508;DHT22;25568;37.410;-122.096;2023-02-04T06:56:14;18.00;79.80
33508;DHT22;25568;37.410;-122.096;2023-02-04T06:58:43;18.00;80.00
33508;DHT22;25568;37.410;-122.096;2023-02-04T07:01:12;18.00;80.00
33508;DHT22;25568;37.410;-122.096;2023-02-04T07:03:41;18.00;79.90
33508;DHT22;25568;37.410;-122.096;2023-02-04T07:06:10;18.00;79.90
33508;DHT22;25568;37.410;-122.096;2023-02-04T07:08:38;18.00;79.90
33508;DHT22;25568;37.410;-122.096;2023-02-04T07:11:07;18.00;79.90
33508;DHT22;25568;37.410;-122.096;2023-02-04T07:13:39;17.90;79.90
33508;DHT22;25568;37.410;-122.096;2023-02-04T07:16:08;17.90;79.90
33508;DHT22;25568;37.410;-122.096;2023-02-04T07:18:36;17.90;80.00
33508;DHT22;25568;37.410;-122.096;2023-02-04T07:21:05;17.90;79.90
33508;DHT22;25568;37.410;-122.096;2023-02-04T07:23:34;17.90;80.00
33508;DHT22;25568;37.410;-122.096;2023-02-04T07:26:03;17.90;80.00
33508;DHT22;25568;37.410;-122.096;2023-02-04T07:28:32;17.90;80.00
33508;DHT22;25568;37.410;-122.096;2023-02-04T07:31:04;17.90;80.00
33508;DHT22;25568;37.410;-122.096;2023-02-04T07:33:35;17.80;80.00
33508;DHT22;25568;37.410;-122.096;2023-02-04T07:36:04;17.80;80.00
33508;DHT22;25568;37.410;-122.096;2023-02-04T07:38:33;17.80;80.00
33508;DHT22;25568;37.410;-122.096;2023-02-04T07:41:02;17.80;80.10
33508;DHT22;25568;37.410;-122.096;2023-02-04T07:43:30;17.80;80.20
33508;DHT22;25568;37.410;-122.096;2023-02-04T07:45:59;17.80;80.20
33508;DHT22;25568;37.410;-122.096;2023-02-04T07:48:30;17.80;81.30
33508;DHT22;25568;37.410;-122.096;2023-02-04T07:50:58;17.80;80.50
33508;DHT22;25568;37.410;-122.096;2023-02-04T07:53:27;17.80;80.60
33508;DHT22;25568;37.410;-122.096;2023-02-04T07:55:56;17.80;80.80
33508;DHT22;25568;37.410;-122.096;2023-02-04T07:58:25;17.80;81.00
33508;DHT22;25568;37.410;-122.096;2023-02-04T08:00:54;17.80;81.10
33508;DHT22;25568;37.410;-122.096;2023-02-04T08:03:23;17.80;81.30
33508;DHT22;25568;37.410;-122.096;2023-02-04T08:05:53;17.80;81.30
33508;DHT22;25568;37.410;-122.096;2023-02-04T08:08:22;17.80;81.50
33508;DHT22;25568;37.410;-122.096;2023-02-04T08:10:51;17.80;81.60
33508;DHT22;25568;37.410;-122.096;2023-02-04T08:13:20;17.80;81.70
33508;DHT22;25568;37.410;-122.096;2023-02-04T08:15:49;17.80;82.00
33508;DHT22;25568;37.410;-122.096;2023-02-04T08:18:17;17.80;82.00
33508;DHT22;25568;37.410;-122.096;2023-02-04T08:20:46;17.80;82.20
33508;DHT22;25568;37.410;-122.096;2023-02-04T08:23:17;17.80;82.20
33508;DHT22;25568;37.410;-122.096;2023-02-04T08:25:46;17.80;82.20
33508;DHT22;25568;37.410;-122.096;2023-02-04T08:28:14;17.70;82.20
33508;DHT22;25568;37.410;-122.096;2023-02-04T08:30:49;17.70;82.20
33508;DHT22;25568;37.410;-122.096;2023-02-04T08:33:19;17.70;82.20
33508;DHT22;25568;37.410;-122.096;2023-02-04T08:35:48;17.70;82.30
33508;DHT22;25568;37.410;-122.096;2023-02-04T08:38:19;17.70;82.30
33508;DHT22;25568;37.410;-122.096;2023-02-04T08:40:48;17.70;82.30
33508;DHT22;25568;37.410;-122.096;2023-02-04T08:43:17;17.70;82.40
33508;DHT22;25568;37.410;-122.096;2023-02-04T08:45:45;17.70;82.50
33508;DHT22;25568;37.410;-122.096;2023-02-04T08:48:14;17.70;82.50
33508;DHT22;25568;37.410;-122.096;2023-02-04T08:50:43;17.70;82.70
33508;DHT22;25568;37.410;-122.096;2023-02-04T08:53:12;17.60;82.70
33508;DHT22;25568;37.410;-122.096;2023-02-04T08:55:42;17.70;82.80
33508;DHT22;25568;37.410;-122.096;2023-02-04T08:58:11;17.60;82.70
33508;DHT22;25568;37.410;-122.096;2023-02-04T09:00:41;17.70;83.00
33508;DHT22;25568;37.410;-122.096;2023-02-04T09:03:13;17.70;83.00
33508;DHT22;25568;37.410;-122.096;2023-02-04T09:05:42;17.60;83.00
33508;DHT22;25568;37.410;-122.096;2023-02-04T09:08:11;17.60;83.00
33508;DHT22;25568;37.410;-122.096;2023-02-04T09:10:43;17.60;83.10
33508;DHT22;25568;37.410;-122.096;2023-02-04T09:13:12;17.70;83.20
33508;DHT22;25568;37.410;-122.096;2023-02-04T09:15:41;17.60;83.30
33508;DHT22;25568;37.410;-122.096;2023-02-04T09:18:09;17.60;83.40
33508;DHT22;25568;37.410;-122.096;2023-02-04T09:20:42;17.60;83.30
33508;DHT22;25568;37.410;-122.096;2023-02-04T09:23:12;17.60;83.50
33508;DHT22;25568;37.410;-122.096;2023-02-04T09:25:43;17.60;83.50
33508;DHT22;25568;37.410;-122.096;2023-02-04T09:28:13;17.60;83.50
33508;DHT22;25568;37.410;-122.096;2023-02-04T09:30:45;17.60;83.60
33508;DHT22;25568;37.410;-122.096;2023-02-04T09:33:14;17.60;83.70
33508;DHT22;25568;37.410;-122.096;2023-02-04T09:35:43;17.60;84.00
33508;DHT22;25568;37.410;-122.096;2023-02-04T09:38:12;17.60;84.30
33508;DHT22;25568;37.410;-122.096;2023-02-04T09:40:45;17.70;84.40
33508;DHT22;25568;37.410;-122.096;2023-02-04T09:43:19;17.80;84.00
33508;DHT22;25568;37.410;-122.096;2023-02-04T09:45:51;17.90;83.80
33508;DHT22;25568;37.410;-122.096;2023-02-04T09:48:21;18.00;83.80
33508;DHT22;25568;37.410;-122.096;2023-02-04T09:50:51;18.00;83.60
33508;DHT22;25568;37.410;-122.096;2023-02-04T09:53:22;18.00;83.80
33508;DHT22;25568;37.410;-122.096;2023-02-04T09:55:53;17.90;83.90
33508;DHT22;25568;37.410;-122.096;2023-02-04T09:58:23;17.80;84.00
33508;DHT22;25568;37.410;-122.096;2023-02-04T10:00:58;17.80;84.10
33508;DHT22;25568;37.410;-122.096;2023-02-04T10:03:28;17.70;84.20
33508;DHT22;25568;37.410;-122.096;2023-02-04T10:05:57;17.70;84.40
33508;DHT22;25568;37.410;-122.096;2023-02-04T10:08:28;17.70;84.60
33508;DHT22;25568;37.410;-122.096;2023-02-04T10:11:00;17.70;84.70
33508;DHT22;25568;37.410;-122.096;2023-02-04T10:13:31;17.70;84.70
33508;DHT22;25568;37.410;-122.096;2023-02-04T10:16:02;17.70;84.80
33508;DHT22;25568;37.410;-122.096;2023-02-04T10:18:34;17.70;85.00
33508;DHT22;25568;37.410;-122.096;2023-02-04T10:21:14;17.70;85.10
33508;DHT22;25568;37.410;-122.096;2023-02-04T10:23:46;17.70;85.10
33508;DHT22;25568;37.410;-122.096;2023-02-04T10:26:18;17.70;85.30
33508;DHT22;25568;37.410;-122.096;2023-02-04T10:28:48;17.70;85.30
33508;DHT22;25568;37.410;-122.096;2023-02-04T10:31:33;17.70;85.90
33508;DHT22;25568;37.410;-122.096;2023-02-04T10:34:05;17.70;86.00
33508;DHT22;25568;37.410;-122.096;2023-02-04T10:36:34;17.70;86.30
33508;DHT22;25568;37.410;-122.096;2023-02-04T10:39:04;17.70;86.40
33508;DHT22;25568;37.410;-122.096;2023-02-04T10:41:36;17.70;86.40
33508;DHT22;25568;37.410;-122.096;2023-02-04T10:44:08;17.70;86.60
33508;DHT22;25568;37.410;-122.096;2023-02-04T10:46:38;17.70;86.60
33508;DHT22;25568;37.410;-122.096;2023-02-04T10:49:17;17.70;86.60
33508;DHT22;25568;37.410;-122.096;2023-02-04T10:51:48;17.70;86.70
33508;DHT22;25568;37.410;-122.096;2023-02-04T10:54:17;17.70;86.70
33508;DHT22;25568;37.410;-122.096;2023-02-04T10:57:10;17.60;86.80
33508;DHT22;25568;37.410;-122.096;2023-02-04T10:59:43;17.70;86.90
33508;DHT22;25568;37.410;-122.096;2023-02-04T11:02:31;17.70;87.00
33508;DHT22;25568;37.410;-122.096;2023-02-04T11:05:00;17.70;87.10
33508;DHT22;25568;37.410;-122.096;2023-02-04T11:07:29;17.60;87.40
33508;DHT22;25568;37.410;-122.096;2023-02-04T11:09:58;17.70;87.70
33508;DHT22;25568;37.410;-122.096;2023-02-04T11:12:40;17.80;87.50
33508;DHT22;25568;37.410;-122.096;2023-02-04T11:15:37;17.90;87.20
33508;DHT22;25568;37.410;-122.096;2023-02-04T11:18:07;18.00;87.10
33508;DHT22;25568;37.410;-122.096;2023-02-04T11:20:37;18.00;86.90
33508;DHT22;25568;37.410;-122.096;2023-02-04T11:23:28;18.00;86.90
33508;DHT22;25568;37.410;-122.096;2023-02-04T11:26:12;17.90;87.10
33508;DHT22;25568;37.410;-122.096;2023-02-04T11:29:06;17.90;87.20
33508;DHT22;25568;37.410;-122.096;2023-02-04T11:31:43;17.80;87.40
33508;DHT22;25568;37.410;-122.096;2023-02-04T11:34:25;17.80;87.40
33508;DHT22;25568;37.410;-122.096;2023-02-04T11:37:09;17.80;87.60
33508;DHT22;25568;37.410;-122.096;2023-02-04T11:39:40;17.80;87.60
33508;DHT22;25568;37.410;-122.096;2023-02-04T11:42:20;17.70;87.70
33508;DHT22;25568;37.410;-122.096;2023-02-04T11:44:58;17.80;87.80
33508;DHT22;25568;37.410;-122.096;2023-02-04T11:47:34;17.70;87.70
33508;DHT22;25568;37.410;-122.096;2023-02-04T11:50:10;17.70;88.20
33508;DHT22;25568;37.410;-122.096;2023-02-04T11:52:40;17.70;88.20
33508;DHT22;25568;37.410;-122.096;2023-02-04T11:55:11;17.70;88.20
33508;DHT22;25568;37.410;-122.096;2023-02-04T11:57:40;17.70;88.40
33508;DHT22;25568;37.410;-122.096;2023-02-04T12:00:17;17.80;88.40
33508;DHT22;25568;37.410;-122.096;2023-02-04T12:02:48;17.70;88.20
33508;DHT22;25568;37.410;-122.096;2023-02-04T12:05:18;17.70;88.20
33508;DHT22;25568;37.410;-122.096;2023-02-04T12:07:49;17.70;88.20
33508;DHT22;25568;37.410;-122.096;2023-02-04T12:10:25;17.70;88.20
33508;DHT22;25568;37.410;-122.096;2023-02-04T12:12:54;17.70;88.20
33508;DHT22;25568;37.410;-122.096;2023-02-04T12:15:32;17.70;88.40
33508;DHT22;25568;37.410;-122.096;2023-02-04T12:18:03;17.70;88.40
33508;DHT22;25568;37.410;-122.096;2023-02-04T12:20:33;17.70;88.40
33508;DHT22;25568;37.410;-122.096;2023-02-04T12:23:01;17.70;88.70
33508;DHT22;25568;37.410;-122.096;2023-02-04T12:25:30;17.60;88.90
33508;DHT22;25568;37.410;-122.096;2023-02-04T12:27:59;17.70;88.90
33508;DHT22;25568;37.410;-122.096;2023-02-04T12:30:30;17.60;89.80
33508;DHT22;25568;37.410;-122.096;2023-02-04T12:32:58;17.60;89.00
33508;DHT22;25568;37.410;-122.096;2023-02-04T12:35:27;17.70;89.20
33508;DHT22;25568;37.410;-122.096;2023-02-04T12:37:56;17.60;89.20
33508;DHT22;25568;37.410;-122.096;2023-02-04T12:40:25;17.60;89.20
33508;DHT22;25568;37.410;-122.096;2023-02-04T12:42:54;17.70;89.10
33508;DHT22;25568;37.410;-122.096;2023-02-04T12:45:23;17.60;89.00
33508;DHT22;25568;37.410;-122.096;2023-02-04T12:47:54;17.60;89.00
33508;DHT22;25568;37.410;-122.096;2023-02-04T12:50:23;17.60;89.10
33508;DHT22;25568;37.410;-122.096;2023-02-04T12:52:54;17.60;89.20
33508;DHT22;25568;37.410;-122.096;2023-02-04T12:55:23;17.60;89.30
33508;DHT22;25568;37.410;-122.096;2023-02-04T12:57:53;17.80;89.10
33508;DHT22;25568;37.410;-122.096;2023-02-04T13:00:22;17.90;88.70
33508;DHT22;25568;37.410;-122.096;2023-02-04T13:02:54;17.90;88.60
33508;DHT22;25568;37.410;-122.096;2023-02-04T13:05:25;18.00;88.50
33508;DHT22;25568;37.410;-122.096;2023-02-04T13:07:54;18.00;88.50
33508;DHT22;25568;37.410;-122.096;2023-02-04T13:10:23;17.90;88.60
33508;DHT22;25568;37.410;-122.096;2023-02-04T13:12:52;17.80;88.60
33508;DHT22;25568;37.410;-122.096;2023-02-04T13:15:20;17.80;88.70
33508;DHT22;25568;37.410;-122.096;2023-02-04T13:17:49;17.80;88.90
33508;DHT22;25568;37.410;-122.096;2023-02-04T13:20:20;17.70;88.90
33508;DHT22;25568;37.410;-122.096;2023-02-04T13:22:49;17.80;88.90
33508;DHT22;25568;37.410;-122.096;2023-02-04T13:25:18;17.70;89.00
33508;DHT22;25568;37.410;-122.096;2023-02-04T13:27:47;17.70;88.90
33508;DHT22;25568;37.410;-122.096;2023-02-04T13:30:16;17.70;89.20
33508;DHT22;25568;37.410;-122.096;2023-02-04T13:32:45;17.70;89.10
33508;DHT22;25568;37.410;-122.096;2023-02-04T13:35:14;17.70;89.20
33508;DHT22;25568;37.410;-122.096;2023-02-04T13:37:44;17.70;89.20
33508;DHT22;25568;37.410;-122.096;2023-02-04T13:40:13;17.70;89.20
33508;DHT22;25568;37.410;-122.096;2023-02-04T13:42:42;17.70;89.30
33508;DHT22;25568;37.410;-122.096;2023-02-04T13:45:11;17.70;89.40
33508;DHT22;25568;37.410;-122.096;2023-02-04T13:47:41;17.60;89.30
33508;DHT22;25568;37.410;-122.096;2023-02-04T13:50:10;17.70;89.40
33508;DHT22;25568;37.410;-122.096;2023-02-04T13:52:39;17.70;89.40
33508;DHT22;25568;37.410;-122.096;2023-02-04T13:55:10;17.70;89.40
33508;DHT22;25568;37.410;-122.096;2023-02-04T13:57:39;17.70;89.40
33508;DHT22;25568;37.410;-122.096;2023-02-04T14:00:09;17.60;89.20
33508;DHT22;25568;37.410;-122.096;2023-02-04T14:02:38;17.60;89.40
33508;DHT22;25568;37.410;-122.096;2023-02-04T14:05:08;17.60;89.40
33508;DHT22;25568;37.410;-122.096;2023-02-04T14:07:37;17.60;89.60
33508;DHT22;25568;37.410;-122.096;2023-02-04T14:10:07;17.60;89.60
33508;DHT22;25568;37.410;-122.096;2023-02-04T14:12:38;17.60;89.60
33508;DHT22;25568;37.410;-122.096;2023-02-04T14:15:08;17.60;89.60
33508;DHT22;25568;37.410;-122.096;2023-02-04T14:17:37;17.60;89.50
33508;DHT22;25568;37.410;-122.096;2023-02-04T14:20:11;17.60;89.50
33508;DHT22;25568;37.410;-122.096;2023-02-04T14:22:43;17.60;89.50
33508;DHT22;25568;37.410;-122.096;2023-02-04T14:25:12;17.60;89.50
33508;DHT22;25568;37.410;-122.096;2023-02-04T14:27:42;17.60;89.80
33508;DHT22;25568;37.410;-122.096;2023-02-04T14:30:16;17.60;89.90
33508;DHT22;25568;37.410;-122.096;2023-02-04T14:32:45;17.60;89.90
33508;DHT22;25568;37.410;-122.096;2023-02-04T14:35:15;17.60;89.90
33508;DHT22;25568;37.410;-122.096;2023-02-04T14:37:44;17.60;89.90
33508;DHT22;25568;37.410;-122.096;2023-02-04T14:40:15;17.60;89.90
33508;DHT22;25568;37.410;-122.096;2023-02-04T14:42:46;17.60;89.80
33508;DHT22;25568;37.410;-122.096;2023-02-04T14:45:15;17.50;89.90
33508;DHT22;25568;37.410;-122.096;2023-02-04T14:47:44;17.50;90.00
33508;DHT22;25568;37.410;-122.096;2023-02-04T14:50:14;17.50;90.00
33508;DHT22;25568;37.410;-122.096;2023-02-04T14:52:44;17.60;90.00
33508;DHT22;25568;37.410;-122.096;2023-02-04T14:55:13;17.70;89.80
33508;DHT22;25568;37.410;-122.096;2023-02-04T14:57:41;17.80;89.60
33508;DHT22;25568;37.410;-122.096;2023-02-04T15:00:13;17.90;89.40
33508;DHT22;25568;37.410;-122.096;2023-02-04T15:02:42;18.00;89.20
33508;DHT22;25568;37.410;-122.096;2023-02-04T15:05:12;18.00;89.10
33508;DHT22;25568;37.410;-122.096;2023-02-04T15:07:41;17.90;89.10